Terminal Aerodrome Forecast
Issued by NWS

Home | Current Version | Previous Version | Graphics & Text | Print | Product List | Glossary On
Versions: 1 2 3 4 5 6 7 8 9 10 11 12 13 14 15 16 17 18 19 20
000
FTUS43 KABR 282322
TAFATY
TAF
KATY 282322Z 2900/2924 33014KT P6SM FEW060
     FM290200 33006KT P6SM SKC
     FM291500 32015KT P6SM SCT070=

USA.gov is the U.S. government's official web portal to all federal, state and local government web resources and services.